Aviation Digital Data Service (ADDS)

Output produced by METARs form (1930 UTC 18 December 2014)
found at http://aviationweather.gov/adds/metars/
 
KBPT 181853Z 02008KT 4SM BR OVC004 17/15 A3006 RMK AO2 RAE13 SLP178 P0000 T01670150